sensor_id;sensor_type;location;lat;lon;timestamp;P1;durP1;ratioP1;P2;durP2;ratioP2
18947;SDS011;9607;51.600;7.558;2024-01-10T00:00:42;10.07;;;4.57;;
18947;SDS011;9607;51.600;7.558;2024-01-10T00:03:08;9.47;;;4.57;;
18947;SDS011;9607;51.600;7.558;2024-01-10T00:05:35;6.57;;;4.17;;
18947;SDS011;9607;51.600;7.558;2024-01-10T00:08:02;9.07;;;5.07;;
18947;SDS011;9607;51.600;7.558;2024-01-10T00:10:30;8.77;;;4.73;;
18947;SDS011;9607;51.600;7.558;2024-01-10T00:12:57;7.67;;;4.97;;
18947;SDS011;9607;51.600;7.558;2024-01-10T00:15:24;8.33;;;5.07;;
18947;SDS011;9607;51.600;7.558;2024-01-10T00:17:51;8.33;;;5.20;;
18947;SDS011;9607;51.600;7.558;2024-01-10T00:20:18;11.77;;;5.43;;
18947;SDS011;9607;51.600;7.558;2024-01-10T00:22:44;8.43;;;5.10;;
18947;SDS011;9607;51.600;7.558;2024-01-10T00:25:11;9.13;;;5.13;;
18947;SDS011;9607;51.600;7.558;2024-01-10T00:27:39;9.53;;;4.80;;
18947;SDS011;9607;51.600;7.558;2024-01-10T00:30:06;8.93;;;4.97;;
18947;SDS011;9607;51.600;7.558;2024-01-10T00:32:34;9.40;;;5.03;;
18947;SDS011;9607;51.600;7.558;2024-01-10T00:35:01;8.50;;;4.93;;
18947;SDS011;9607;51.600;7.558;2024-01-10T00:37:28;7.30;;;4.20;;
18947;SDS011;9607;51.600;7.558;2024-01-10T00:39:54;7.57;;;4.33;;
18947;SDS011;9607;51.600;7.558;2024-01-10T00:42:21;9.13;;;4.93;;
18947;SDS011;9607;51.600;7.558;2024-01-10T00:44:50;8.87;;;4.90;;
18947;SDS011;9607;51.600;7.558;2024-01-10T00:47:16;9.27;;;5.03;;
18947;SDS011;9607;51.600;7.558;2024-01-10T00:49:43;6.47;;;4.53;;
18947;SDS011;9607;51.600;7.558;2024-01-10T00:52:10;8.47;;;4.30;;
18947;SDS011;9607;51.600;7.558;2024-01-10T00:54:37;9.43;;;5.73;;
18947;SDS011;9607;51.600;7.558;2024-01-10T00:57:03;8.73;;;5.10;;
18947;SDS011;9607;51.600;7.558;2024-01-10T00:59:30;10.70;;;5.87;;
18947;SDS011;9607;51.600;7.558;2024-01-10T01:01:58;11.50;;;5.60;;
18947;SDS011;9607;51.600;7.558;2024-01-10T01:04:25;9.40;;;4.80;;
18947;SDS011;9607;51.600;7.558;2024-01-10T01:06:52;8.57;;;5.20;;
18947;SDS011;9607;51.600;7.558;2024-01-10T01:09:19;8.73;;;4.87;;
18947;SDS011;9607;51.600;7.558;2024-01-10T01:11:45;9.57;;;5.00;;
18947;SDS011;9607;51.600;7.558;2024-01-10T01:14:12;9.47;;;5.03;;
18947;SDS011;9607;51.600;7.558;2024-01-10T01:16:39;8.03;;;5.23;;
18947;SDS011;9607;51.600;7.558;2024-01-10T01:19:07;7.70;;;4.43;;
18947;SDS011;9607;51.600;7.558;2024-01-10T01:21:34;8.93;;;5.00;;
18947;SDS011;9607;51.600;7.558;2024-01-10T01:24:00;11.23;;;5.50;;
18947;SDS011;9607;51.600;7.558;2024-01-10T01:26:27;9.03;;;5.40;;
18947;SDS011;9607;51.600;7.558;2024-01-10T01:28:54;11.07;;;5.70;;
18947;SDS011;9607;51.600;7.558;2024-01-10T01:31:21;8.20;;;5.10;;
18947;SDS011;9607;51.600;7.558;2024-01-10T01:33:48;10.83;;;6.13;;
18947;SDS011;9607;51.600;7.558;2024-01-10T01:36:16;8.73;;;5.03;;
18947;SDS011;9607;51.600;7.558;2024-01-10T01:38:43;8.70;;;5.30;;
18947;SDS011;9607;51.600;7.558;2024-01-10T01:41:10;7.97;;;4.87;;
18947;SDS011;9607;51.600;7.558;2024-01-10T01:43:37;10.87;;;5.87;;
18947;SDS011;9607;51.600;7.558;2024-01-10T01:46:04;10.40;;;5.70;;
18947;SDS011;9607;51.600;7.558;2024-01-10T01:48:31;9.77;;;5.67;;
18947;SDS011;9607;51.600;7.558;2024-01-10T01:50:59;11.10;;;6.37;;
18947;SDS011;9607;51.600;7.558;2024-01-10T01:53:29;9.53;;;5.30;;
18947;SDS011;9607;51.600;7.558;2024-01-10T01:55:57;10.37;;;5.43;;
18947;SDS011;9607;51.600;7.558;2024-01-10T01:58:26;10.13;;;5.00;;
18947;SDS011;9607;51.600;7.558;2024-01-10T02:00:53;10.47;;;5.30;;
18947;SDS011;9607;51.600;7.558;2024-01-10T02:03:20;8.33;;;4.90;;
18947;SDS011;9607;51.600;7.558;2024-01-10T02:05:47;9.80;;;5.33;;
18947;SDS011;9607;51.600;7.558;2024-01-10T02:08:14;9.30;;;5.47;;
18947;SDS011;9607;51.600;7.558;2024-01-10T02:10:42;12.77;;;5.73;;
18947;SDS011;9607;51.600;7.558;2024-01-10T02:13:09;9.70;;;4.80;;
18947;SDS011;9607;51.600;7.558;2024-01-10T02:15:36;11.23;;;5.30;;
18947;SDS011;9607;51.600;7.558;2024-01-10T02:18:04;9.47;;;5.20;;
18947;SDS011;9607;51.600;7.558;2024-01-10T02:20:31;10.83;;;6.07;;
18947;SDS011;9607;51.600;7.558;2024-01-10T02:22:59;9.37;;;5.50;;
18947;SDS011;9607;51.600;7.558;2024-01-10T02:25:27;12.47;;;5.87;;
18947;SDS011;9607;51.600;7.558;2024-01-10T02:27:54;9.27;;;5.43;;
18947;SDS011;9607;51.600;7.558;2024-01-10T02:30:20;8.53;;;5.23;;
18947;SDS011;9607;51.600;7.558;2024-01-10T02:32:47;10.97;;;5.27;;
18947;SDS011;9607;51.600;7.558;2024-01-10T02:35:14;9.67;;;5.53;;
18947;SDS011;9607;51.600;7.558;2024-01-10T02:37:41;8.43;;;4.87;;
18947;SDS011;9607;51.600;7.558;2024-01-10T02:40:08;9.40;;;5.57;;
18947;SDS011;9607;51.600;7.558;2024-01-10T02:42:36;10.53;;;5.63;;
18947;SDS011;9607;51.600;7.558;2024-01-10T02:45:03;9.60;;;4.90;;
18947;SDS011;9607;51.600;7.558;2024-01-10T02:47:31;9.90;;;5.70;;
18947;SDS011;9607;51.600;7.558;2024-01-10T02:49:57;11.20;;;5.23;;
18947;SDS011;9607;51.600;7.558;2024-01-10T02:52:24;10.63;;;5.97;;
18947;SDS011;9607;51.600;7.558;2024-01-10T02:54:51;12.93;;;5.73;;
18947;SDS011;9607;51.600;7.558;2024-01-10T02:57:18;11.10;;;5.23;;
18947;SDS011;9607;51.600;7.558;2024-01-10T02:59:46;8.77;;;5.10;;
18947;SDS011;9607;51.600;7.558;2024-01-10T03:02:13;11.37;;;6.10;;
18947;SDS011;9607;51.600;7.558;2024-01-10T03:04:40;11.47;;;5.97;;
18947;SDS011;9607;51.600;7.558;2024-01-10T03:07:07;10.43;;;5.80;;
18947;SDS011;9607;51.600;7.558;2024-01-10T03:09:34;10.83;;;5.40;;
18947;SDS011;9607;51.600;7.558;2024-01-10T03:12:01;10.17;;;6.07;;
18947;SDS011;9607;51.600;7.558;2024-01-10T03:14:27;10.13;;;5.43;;
18947;SDS011;9607;51.600;7.558;2024-01-10T03:16:56;10.90;;;5.50;;
18947;SDS011;9607;51.600;7.558;2024-01-10T03:19:22;8.60;;;5.40;;
18947;SDS011;9607;51.600;7.558;2024-01-10T03:21:49;10.00;;;5.63;;
18947;SDS011;9607;51.600;7.558;2024-01-10T03:24:16;12.77;;;5.73;;
18947;SDS011;9607;51.600;7.558;2024-01-10T03:26:43;10.40;;;5.47;;
18947;SDS011;9607;51.600;7.558;2024-01-10T03:29:09;12.17;;;6.77;;
18947;SDS011;9607;51.600;7.558;2024-01-10T03:31:36;10.07;;;5.80;;
18947;SDS011;9607;51.600;7.558;2024-01-10T03:34:05;9.50;;;5.90;;
18947;SDS011;9607;51.600;7.558;2024-01-10T03:36:31;9.43;;;5.73;;
18947;SDS011;9607;51.600;7.558;2024-01-10T03:38:58;13.37;;;6.53;;
18947;SDS011;9607;51.600;7.558;2024-01-10T03:41:25;10.70;;;5.90;;
18947;SDS011;9607;51.600;7.558;2024-01-10T03:43:52;11.33;;;5.77;;
18947;SDS011;9607;51.600;7.558;2024-01-10T03:46:19;10.63;;;6.67;;
18947;SDS011;9607;51.600;7.558;2024-01-10T03:48:46;10.03;;;5.60;;
18947;SDS011;9607;51.600;7.558;2024-01-10T03:51:15;10.47;;;5.50;;
18947;SDS011;9607;51.600;7.558;2024-01-10T03:53:42;12.20;;;6.37;;
18947;SDS011;9607;51.600;7.558;2024-01-10T03:56:09;12.20;;;6.13;;
18947;SDS011;9607;51.600;7.558;2024-01-10T03:58:36;11.60;;;6.10;;
18947;SDS011;9607;51.600;7.558;2024-01-10T04:01:06;12.90;;;6.67;;
18947;SDS011;9607;51.600;7.558;2024-01-10T04:03:33;13.53;;;6.20;;
18947;SDS011;9607;51.600;7.558;2024-01-10T04:06:00;10.83;;;5.33;;
18947;SDS011;9607;51.600;7.558;2024-01-10T04:08:28;10.83;;;6.30;;
18947;SDS011;9607;51.600;7.558;2024-01-10T04:10:55;10.30;;;5.80;;
18947;SDS011;9607;51.600;7.558;2024-01-10T04:13:22;11.50;;;6.10;;
18947;SDS011;9607;51.600;7.558;2024-01-10T04:15:49;9.23;;;5.47;;
18947;SDS011;9607;51.600;7.558;2024-01-10T04:18:16;9.37;;;5.37;;
18947;SDS011;9607;51.600;7.558;2024-01-10T04:20:43;12.67;;;6.40;;
18947;SDS011;9607;51.600;7.558;2024-01-10T04:23:10;12.33;;;6.03;;
18947;SDS011;9607;51.600;7.558;2024-01-10T04:25:38;9.77;;;5.37;;
18947;SDS011;9607;51.600;7.558;2024-01-10T04:28:05;9.27;;;4.93;;
18947;SDS011;9607;51.600;7.558;2024-01-10T04:30:32;11.33;;;5.93;;
18947;SDS011;9607;51.600;7.558;2024-01-10T04:32:59;13.93;;;6.33;;
18947;SDS011;9607;51.600;7.558;2024-01-10T04:35:26;13.43;;;6.57;;
18947;SDS011;9607;51.600;7.558;2024-01-10T04:37:52;10.53;;;5.87;;
18947;SDS011;9607;51.600;7.558;2024-01-10T04:40:19;11.03;;;6.00;;
18947;SDS011;9607;51.600;7.558;2024-01-10T04:42:47;13.33;;;6.57;;
18947;SDS011;9607;51.600;7.558;2024-01-10T04:45:14;11.30;;;5.73;;
18947;SDS011;9607;51.600;7.558;2024-01-10T04:47:41;12.30;;;6.57;;
18947;SDS011;9607;51.600;7.558;2024-01-10T04:50:10;10.67;;;5.87;;
18947;SDS011;9607;51.600;7.558;2024-01-10T04:52:37;11.77;;;6.03;;
18947;SDS011;9607;51.600;7.558;2024-01-10T04:55:04;11.17;;;6.43;;
18947;SDS011;9607;51.600;7.558;2024-01-10T04:57:33;10.67;;;6.40;;
18947;SDS011;9607;51.600;7.558;2024-01-10T05:00:01;11.93;;;6.00;;
18947;SDS011;9607;51.600;7.558;2024-01-10T05:02:28;9.97;;;5.67;;
18947;SDS011;9607;51.600;7.558;2024-01-10T05:04:55;10.17;;;5.87;;
18947;SDS011;9607;51.600;7.558;2024-01-10T05:07:22;9.10;;;4.90;;
18947;SDS011;9607;51.600;7.558;2024-01-10T05:09:48;13.07;;;6.10;;
18947;SDS011;9607;51.600;7.558;2024-01-10T05:12:15;9.40;;;5.83;;
18947;SDS011;9607;51.600;7.558;2024-01-10T05:14:43;11.63;;;6.20;;
18947;SDS011;9607;51.600;7.558;2024-01-10T05:17:11;9.57;;;5.50;;
18947;SDS011;9607;51.600;7.558;2024-01-10T05:19:37;12.37;;;5.80;;
18947;SDS011;9607;51.600;7.558;2024-01-10T05:22:04;10.57;;;5.90;;
18947;SDS011;9607;51.600;7.558;2024-01-10T05:24:32;12.20;;;6.30;;
18947;SDS011;9607;51.600;7.558;2024-01-10T05:26:59;10.60;;;6.03;;
18947;SDS011;9607;51.600;7.558;2024-01-10T05:29:25;13.03;;;6.77;;
18947;SDS011;9607;51.600;7.558;2024-01-10T05:31:52;12.73;;;6.27;;
18947;SDS011;9607;51.600;7.558;2024-01-10T05:34:21;12.03;;;6.40;;
18947;SDS011;9607;51.600;7.558;2024-01-10T05:36:47;12.13;;;5.83;;
18947;SDS011;9607;51.600;7.558;2024-01-10T05:39:17;9.77;;;5.67;;
18947;SDS011;9607;51.600;7.558;2024-01-10T05:41:45;9.73;;;5.30;;
18947;SDS011;9607;51.600;7.558;2024-01-10T05:44:12;14.13;;;6.30;;
18947;SDS011;9607;51.600;7.558;2024-01-10T05:46:39;11.77;;;6.20;;
18947;SDS011;9607;51.600;7.558;2024-01-10T05:49:08;11.30;;;6.00;;
18947;SDS011;9607;51.600;7.558;2024-01-10T05:51:37;12.27;;;6.33;;
18947;SDS011;9607;51.600;7.558;2024-01-10T05:54:03;11.17;;;5.70;;
18947;SDS011;9607;51.600;7.558;2024-01-10T05:56:30;10.43;;;5.37;;
18947;SDS011;9607;51.600;7.558;2024-01-10T05:58:57;10.80;;;6.10;;
18947;SDS011;9607;51.600;7.558;2024-01-10T06:01:24;10.40;;;6.33;;
18947;SDS011;9607;51.600;7.558;2024-01-10T06:03:51;11.00;;;6.30;;
18947;SDS011;9607;51.600;7.558;2024-01-10T06:06:17;15.93;;;6.97;;
18947;SDS011;9607;51.600;7.558;2024-01-10T06:08:45;11.40;;;6.50;;
18947;SDS011;9607;51.600;7.558;2024-01-10T06:11:12;14.00;;;7.13;;
18947;SDS011;9607;51.600;7.558;2024-01-10T06:13:39;11.70;;;6.50;;
18947;SDS011;9607;51.600;7.558;2024-01-10T06:16:06;11.93;;;6.53;;
18947;SDS011;9607;51.600;7.558;2024-01-10T06:18:33;10.77;;;6.60;;
18947;SDS011;9607;51.600;7.558;2024-01-10T06:21:00;11.47;;;6.77;;
18947;SDS011;9607;51.600;7.558;2024-01-10T06:23:27;13.43;;;6.93;;
18947;SDS011;9607;51.600;7.558;2024-01-10T06:25:55;11.40;;;7.13;;
18947;SDS011;9607;51.600;7.558;2024-01-10T06:28:22;17.10;;;8.70;;
18947;SDS011;9607;51.600;7.558;2024-01-10T06:30:49;18.03;;;7.90;;
18947;SDS011;9607;51.600;7.558;2024-01-10T06:33:17;13.37;;;7.20;;
18947;SDS011;9607;51.600;7.558;2024-01-10T06:35:45;14.57;;;7.93;;
18947;SDS011;9607;51.600;7.558;2024-01-10T06:38:11;12.13;;;7.13;;
18947;SDS011;9607;51.600;7.558;2024-01-10T06:40:38;16.40;;;7.83;;
18947;SDS011;9607;51.600;7.558;2024-01-10T06:43:07;13.63;;;7.40;;
18947;SDS011;9607;51.600;7.558;2024-01-10T06:45:34;16.37;;;8.60;;
18947;SDS011;9607;51.600;7.558;2024-01-10T06:48:01;17.53;;;8.23;;
18947;SDS011;9607;51.600;7.558;2024-01-10T06:50:28;14.60;;;7.13;;
18947;SDS011;9607;51.600;7.558;2024-01-10T06:52:56;11.17;;;6.70;;
18947;SDS011;9607;51.600;7.558;2024-01-10T06:55:22;12.43;;;7.20;;
18947;SDS011;9607;51.600;7.558;2024-01-10T06:57:51;15.10;;;7.73;;
18947;SDS011;9607;51.600;7.558;2024-01-10T07:00:20;17.03;;;9.00;;
18947;SDS011;9607;51.600;7.558;2024-01-10T07:02:47;16.90;;;9.00;;
18947;SDS011;9607;51.600;7.558;2024-01-10T07:05:15;18.03;;;8.53;;
18947;SDS011;9607;51.600;7.558;2024-01-10T07:07:42;17.77;;;8.53;;
18947;SDS011;9607;51.600;7.558;2024-01-10T07:10:09;15.90;;;8.07;;
18947;SDS011;9607;51.600;7.558;2024-01-10T07:12:36;16.87;;;8.87;;
18947;SDS011;9607;51.600;7.558;2024-01-10T07:15:04;14.17;;;7.90;;
18947;SDS011;9607;51.600;7.558;2024-01-10T07:17:33;15.47;;;8.17;;
18947;SDS011;9607;51.600;7.558;2024-01-10T07:20:00;14.90;;;8.63;;
18947;SDS011;9607;51.600;7.558;2024-01-10T07:22:28;15.63;;;8.30;;
18947;SDS011;9607;51.600;7.558;2024-01-10T07:24:54;14.33;;;7.33;;
18947;SDS011;9607;51.600;7.558;2024-01-10T07:27:22;15.30;;;7.87;;
18947;SDS011;9607;51.600;7.558;2024-01-10T07:29:49;14.90;;;8.20;;
18947;SDS011;9607;51.600;7.558;2024-01-10T07:32:16;14.23;;;7.43;;
18947;SDS011;9607;51.600;7.558;2024-01-10T07:34:46;12.77;;;7.57;;
18947;SDS011;9607;51.600;7.558;2024-01-10T07:37:13;14.80;;;7.77;;
18947;SDS011;9607;51.600;7.558;2024-01-10T07:39:41;13.60;;;7.60;;
18947;SDS011;9607;51.600;7.558;2024-01-10T07:42:08;14.60;;;7.50;;
18947;SDS011;9607;51.600;7.558;2024-01-10T07:44:35;12.87;;;6.90;;
18947;SDS011;9607;51.600;7.558;2024-01-10T07:47:02;12.13;;;6.33;;
18947;SDS011;9607;51.600;7.558;2024-01-10T07:49:29;15.97;;;7.57;;
18947;SDS011;9607;51.600;7.558;2024-01-10T07:51:58;15.17;;;7.50;;
18947;SDS011;9607;51.600;7.558;2024-01-10T07:54:25;14.77;;;7.97;;
18947;SDS011;9607;51.600;7.558;2024-01-10T07:56:52;15.23;;;8.00;;
18947;SDS011;9607;51.600;7.558;2024-01-10T07:59:19;16.53;;;8.43;;
18947;SDS011;9607;51.600;7.558;2024-01-10T08:01:54;15.20;;;7.83;;
18947;SDS011;9607;51.600;7.558;2024-01-10T08:04:23;15.03;;;8.23;;
18947;SDS011;9607;51.600;7.558;2024-01-10T08:06:50;15.37;;;8.47;;
18947;SDS011;9607;51.600;7.558;2024-01-10T08:09:19;13.77;;;8.03;;
18947;SDS011;9607;51.600;7.558;2024-01-10T08:11:46;15.20;;;9.00;;
18947;SDS011;9607;51.600;7.558;2024-01-10T08:14:12;17.50;;;8.90;;
18947;SDS011;9607;51.600;7.558;2024-01-10T08:16:40;19.03;;;9.27;;
18947;SDS011;9607;51.600;7.558;2024-01-10T08:19:07;17.80;;;9.73;;
18947;SDS011;9607;51.600;7.558;2024-01-10T08:21:34;21.33;;;9.87;;
18947;SDS011;9607;51.600;7.558;2024-01-10T08:24:02;19.30;;;9.80;;
18947;SDS011;9607;51.600;7.558;2024-01-10T08:26:30;22.97;;;10.77;;
18947;SDS011;9607;51.600;7.558;2024-01-10T08:28:57;22.00;;;11.30;;
18947;SDS011;9607;51.600;7.558;2024-01-10T08:31:24;21.37;;;11.23;;
18947;SDS011;9607;51.600;7.558;2024-01-10T08:33:52;21.63;;;11.20;;
18947;SDS011;9607;51.600;7.558;2024-01-10T08:36:18;21.60;;;11.10;;
18947;SDS011;9607;51.600;7.558;2024-01-10T08:38:45;22.30;;;12.30;;
18947;SDS011;9607;51.600;7.558;2024-01-10T08:41:13;24.40;;;11.03;;
18947;SDS011;9607;51.600;7.558;2024-01-10T08:43:41;25.73;;;11.73;;
18947;SDS011;9607;51.600;7.558;2024-01-10T08:46:08;22.77;;;11.70;;
18947;SDS011;9607;51.600;7.558;2024-01-10T08:48:36;21.33;;;11.00;;
18947;SDS011;9607;51.600;7.558;2024-01-10T08:51:02;24.03;;;11.47;;
18947;SDS011;9607;51.600;7.558;2024-01-10T08:53:29;22.10;;;12.47;;
18947;SDS011;9607;51.600;7.558;2024-01-10T08:55:57;19.27;;;10.10;;
18947;SDS011;9607;51.600;7.558;2024-01-10T08:58:24;20.10;;;11.07;;
18947;SDS011;9607;51.600;7.558;2024-01-10T09:00:52;23.10;;;13.03;;
18947;SDS011;9607;51.600;7.558;2024-01-10T09:03:19;22.63;;;10.70;;
18947;SDS011;9607;51.600;7.558;2024-01-10T09:05:45;23.07;;;12.37;;
18947;SDS011;9607;51.600;7.558;2024-01-10T09:08:12;27.97;;;13.50;;
18947;SDS011;9607;51.600;7.558;2024-01-10T09:10:40;25.07;;;12.20;;
18947;SDS011;9607;51.600;7.558;2024-01-10T09:13:07;22.03;;;12.17;;
18947;SDS011;9607;51.600;7.558;2024-01-10T09:15:34;25.27;;;12.53;;
18947;SDS011;9607;51.600;7.558;2024-01-10T09:18:02;21.37;;;11.67;;
18947;SDS011;9607;51.600;7.558;2024-01-10T09:20:29;24.70;;;12.40;;
18947;SDS011;9607;51.600;7.558;2024-01-10T09:22:56;22.67;;;11.07;;
18947;SDS011;9607;51.600;7.558;2024-01-10T09:25:25;21.40;;;11.33;;
18947;SDS011;9607;51.600;7.558;2024-01-10T09:27:52;20.27;;;11.43;;
18947;SDS011;9607;51.600;7.558;2024-01-10T09:30:19;21.57;;;12.13;;
18947;SDS011;9607;51.600;7.558;2024-01-10T09:32:46;23.40;;;12.87;;
18947;SDS011;9607;51.600;7.558;2024-01-10T09:35:14;24.77;;;11.77;;
18947;SDS011;9607;51.600;7.558;2024-01-10T09:37:42;21.20;;;11.70;;
18947;SDS011;9607;51.600;7.558;2024-01-10T09:40:10;22.97;;;11.80;;
18947;SDS011;9607;51.600;7.558;2024-01-10T09:42:41;19.63;;;11.60;;
18947;SDS011;9607;51.600;7.558;2024-01-10T09:45:10;22.42;;;10.88;;
18947;SDS011;9607;51.600;7.558;2024-01-10T09:47:38;21.70;;;12.20;;
18947;SDS011;9607;51.600;7.558;2024-01-10T09:50:07;21.98;;;12.43;;
18947;SDS011;9607;51.600;7.558;2024-01-10T09:52:39;20.85;;;11.68;;
18947;SDS011;9607;51.600;7.558;2024-01-10T09:55:08;20.30;;;11.32;;
18947;SDS011;9607;51.600;7.558;2024-01-10T09:57:36;22.40;;;11.77;;
18947;SDS011;9607;51.600;7.558;2024-01-10T10:00:04;24.77;;;13.63;;
18947;SDS011;9607;51.600;7.558;2024-01-10T10:02:35;18.42;;;10.45;;
18947;SDS011;9607;51.600;7.558;2024-01-10T10:05:07;19.20;;;10.50;;
18947;SDS011;9607;51.600;7.558;2024-01-10T10:07:44;20.75;;;11.20;;
18947;SDS011;9607;51.600;7.558;2024-01-10T10:10:11;21.90;;;11.05;;
18947;SDS011;9607;51.600;7.558;2024-01-10T10:12:43;19.02;;;11.30;;
18947;SDS011;9607;51.600;7.558;2024-01-10T10:15:11;23.42;;;11.40;;
18947;SDS011;9607;51.600;7.558;2024-01-10T10:17:39;25.33;;;11.88;;
18947;SDS011;9607;51.600;7.558;2024-01-10T10:20:13;20.15;;;11.00;;
18947;SDS011;9607;51.600;7.558;2024-01-10T10:22:46;21.33;;;11.52;;
18947;SDS011;9607;51.600;7.558;2024-01-10T10:25:25;22.17;;;11.45;;
18947;SDS011;9607;51.600;7.558;2024-01-10T10:27:53;20.80;;;11.88;;
18947;SDS011;9607;51.600;7.558;2024-01-10T10:30:20;20.58;;;11.00;;
18947;SDS011;9607;51.600;7.558;2024-01-10T10:32:47;22.25;;;12.40;;
18947;SDS011;9607;51.600;7.558;2024-01-10T10:35:14;19.30;;;11.35;;
18947;SDS011;9607;51.600;7.558;2024-01-10T10:37:41;21.65;;;11.95;;
18947;SDS011;9607;51.600;7.558;2024-01-10T10:40:10;19.15;;;10.85;;
18947;SDS011;9607;51.600;7.558;2024-01-10T10:42:38;22.80;;;12.25;;
18947;SDS011;9607;51.600;7.558;2024-01-10T10:45:12;22.30;;;11.45;;
18947;SDS011;9607;51.600;7.558;2024-01-10T10:47:42;20.05;;;11.82;;
18947;SDS011;9607;51.600;7.558;2024-01-10T10:50:11;19.42;;;11.52;;
18947;SDS011;9607;51.600;7.558;2024-01-10T10:52:41;22.20;;;11.55;;
18947;SDS011;9607;51.600;7.558;2024-01-10T10:55:13;18.30;;;11.45;;
18947;SDS011;9607;51.600;7.558;2024-01-10T10:57:43;21.55;;;11.20;;
18947;SDS011;9607;51.600;7.558;2024-01-10T11:00:12;22.95;;;12.48;;
18947;SDS011;9607;51.600;7.558;2024-01-10T11:02:41;17.08;;;10.27;;
18947;SDS011;9607;51.600;7.558;2024-01-10T11:05:08;21.30;;;11.60;;
18947;SDS011;9607;51.600;7.558;2024-01-10T11:07:36;18.63;;;11.35;;
18947;SDS011;9607;51.600;7.558;2024-01-10T11:10:04;22.70;;;12.90;;
18947;SDS011;9607;51.600;7.558;2024-01-10T11:12:47;19.58;;;11.07;;
18947;SDS011;9607;51.600;7.558;2024-01-10T11:15:32;18.60;;;10.70;;
18947;SDS011;9607;51.600;7.558;2024-01-10T11:18:16;21.92;;;11.38;;
18947;SDS011;9607;51.600;7.558;2024-01-10T11:21:03;22.52;;;11.23;;
18947;SDS011;9607;51.600;7.558;2024-01-10T11:23:43;20.73;;;11.48;;
18947;SDS011;9607;51.600;7.558;2024-01-10T11:26:13;21.30;;;11.25;;
18947;SDS011;9607;51.600;7.558;2024-01-10T11:28:42;21.52;;;11.57;;
18947;SDS011;9607;51.600;7.558;2024-01-10T11:31:09;20.17;;;10.38;;
18947;SDS011;9607;51.600;7.558;2024-01-10T11:33:39;16.85;;;9.98;;
18947;SDS011;9607;51.600;7.558;2024-01-10T11:36:12;17.80;;;10.23;;
18947;SDS011;9607;51.600;7.558;2024-01-10T11:38:43;16.25;;;9.98;;
18947;SDS011;9607;51.600;7.558;2024-01-10T11:41:21;18.80;;;10.50;;
18947;SDS011;9607;51.600;7.558;2024-01-10T11:46:53;20.92;;;10.30;;
18947;SDS011;9607;51.600;7.558;2024-01-10T11:49:21;21.67;;;11.18;;
18947;SDS011;9607;51.600;7.558;2024-01-10T11:51:49;23.73;;;11.98;;
18947;SDS011;9607;51.600;7.558;2024-01-10T11:54:37;20.13;;;11.95;;
18947;SDS011;9607;51.600;7.558;2024-01-10T11:57:19;17.42;;;10.52;;
18947;SDS011;9607;51.600;7.558;2024-01-10T11:59:49;17.25;;;9.95;;
18947;SDS011;9607;51.600;7.558;2024-01-10T12:02:17;18.20;;;10.82;;
18947;SDS011;9607;51.600;7.558;2024-01-10T12:04:44;20.95;;;10.52;;
18947;SDS011;9607;51.600;7.558;2024-01-10T12:07:11;16.45;;;9.82;;
18947;SDS011;9607;51.600;7.558;2024-01-10T12:09:38;16.83;;;10.35;;
18947;SDS011;9607;51.600;7.558;2024-01-10T12:12:07;16.83;;;9.73;;
18947;SDS011;9607;51.600;7.558;2024-01-10T12:14:34;19.02;;;10.63;;
18947;SDS011;9607;51.600;7.558;2024-01-10T12:17:03;17.25;;;10.25;;
18947;SDS011;9607;51.600;7.558;2024-01-10T12:19:33;18.58;;;11.05;;
18947;SDS011;9607;51.600;7.558;2024-01-10T12:22:02;18.92;;;10.35;;
18947;SDS011;9607;51.600;7.558;2024-01-10T12:24:30;17.48;;;9.98;;
18947;SDS011;9607;51.600;7.558;2024-01-10T12:26:57;19.02;;;10.38;;
18947;SDS011;9607;51.600;7.558;2024-01-10T12:29:25;17.63;;;10.90;;
18947;SDS011;9607;51.600;7.558;2024-01-10T12:31:52;16.65;;;11.00;;
18947;SDS011;9607;51.600;7.558;2024-01-10T12:34:21;16.30;;;10.93;;
18947;SDS011;9607;51.600;7.558;2024-01-10T12:36:48;17.98;;;10.75;;
18947;SDS011;9607;51.600;7.558;2024-01-10T12:39:15;17.85;;;10.77;;
18947;SDS011;9607;51.600;7.558;2024-01-10T12:41:42;16.65;;;10.00;;
18947;SDS011;9607;51.600;7.558;2024-01-10T12:44:10;16.02;;;10.07;;
18947;SDS011;9607;51.600;7.558;2024-01-10T12:46:48;18.10;;;10.68;;
18947;SDS011;9607;51.600;7.558;2024-01-10T12:49:16;16.77;;;10.98;;
18947;SDS011;9607;51.600;7.558;2024-01-10T12:51:46;14.75;;;10.13;;
18947;SDS011;9607;51.600;7.558;2024-01-10T12:54:13;14.77;;;9.35;;
18947;SDS011;9607;51.600;7.558;2024-01-10T12:56:41;16.00;;;10.10;;
18947;SDS011;9607;51.600;7.558;2024-01-10T12:59:07;15.90;;;9.80;;
18947;SDS011;9607;51.600;7.558;2024-01-10T13:01:35;18.40;;;10.13;;
18947;SDS011;9607;51.600;7.558;2024-01-10T13:04:02;16.70;;;9.63;;
18947;SDS011;9607;51.600;7.558;2024-01-10T13:06:30;18.55;;;10.50;;
18947;SDS011;9607;51.600;7.558;2024-01-10T13:08:58;17.20;;;10.15;;
18947;SDS011;9607;51.600;7.558;2024-01-10T13:11:25;18.42;;;10.70;;
18947;SDS011;9607;51.600;7.558;2024-01-10T13:13:52;18.95;;;10.55;;
18947;SDS011;9607;51.600;7.558;2024-01-10T13:16:18;16.77;;;10.32;;
18947;SDS011;9607;51.600;7.558;2024-01-10T13:18:45;18.83;;;11.20;;
18947;SDS011;9607;51.600;7.558;2024-01-10T13:21:12;18.70;;;10.18;;
18947;SDS011;9607;51.600;7.558;2024-01-10T13:23:39;18.77;;;10.00;;
18947;SDS011;9607;51.600;7.558;2024-01-10T13:26:08;20.08;;;10.68;;
18947;SDS011;9607;51.600;7.558;2024-01-10T13:28:36;15.57;;;9.70;;
18947;SDS011;9607;51.600;7.558;2024-01-10T13:31:03;19.42;;;11.73;;
18947;SDS011;9607;51.600;7.558;2024-01-10T13:33:30;17.55;;;10.57;;
18947;SDS011;9607;51.600;7.558;2024-01-10T13:35:57;17.15;;;9.77;;
18947;SDS011;9607;51.600;7.558;2024-01-10T13:38:25;16.08;;;9.35;;
18947;SDS011;9607;51.600;7.558;2024-01-10T13:40:52;18.52;;;9.60;;
18947;SDS011;9607;51.600;7.558;2024-01-10T13:43:21;19.25;;;9.85;;
18947;SDS011;9607;51.600;7.558;2024-01-10T13:45:47;13.82;;;9.15;;
18947;SDS011;9607;51.600;7.558;2024-01-10T13:48:14;16.70;;;8.48;;
18947;SDS011;9607;51.600;7.558;2024-01-10T13:50:42;15.10;;;8.23;;
18947;SDS011;9607;51.600;7.558;2024-01-10T13:53:10;14.68;;;8.93;;
18947;SDS011;9607;51.600;7.558;2024-01-10T13:55:38;14.60;;;9.18;;
18947;SDS011;9607;51.600;7.558;2024-01-10T13:58:06;17.10;;;9.80;;
18947;SDS011;9607;51.600;7.558;2024-01-10T14:00:34;12.80;;;8.50;;
18947;SDS011;9607;51.600;7.558;2024-01-10T14:03:03;13.88;;;8.38;;
18947;SDS011;9607;51.600;7.558;2024-01-10T14:05:30;15.10;;;8.95;;
18947;SDS011;9607;51.600;7.558;2024-01-10T14:07:56;19.38;;;9.18;;
18947;SDS011;9607;51.600;7.558;2024-01-10T14:10:23;17.38;;;8.68;;
18947;SDS011;9607;51.600;7.558;2024-01-10T14:12:50;15.02;;;8.68;;
18947;SDS011;9607;51.600;7.558;2024-01-10T14:15:17;13.23;;;8.15;;
18947;SDS011;9607;51.600;7.558;2024-01-10T14:17:45;18.00;;;10.25;;
18947;SDS011;9607;51.600;7.558;2024-01-10T14:20:12;13.65;;;8.52;;
18947;SDS011;9607;51.600;7.558;2024-01-10T14:22:39;18.90;;;10.50;;
18947;SDS011;9607;51.600;7.558;2024-01-10T14:25:07;17.83;;;9.52;;
18947;SDS011;9607;51.600;7.558;2024-01-10T14:27:36;19.02;;;9.02;;
18947;SDS011;9607;51.600;7.558;2024-01-10T14:30:04;17.58;;;9.23;;
18947;SDS011;9607;51.600;7.558;2024-01-10T14:32:33;17.38;;;9.73;;
18947;SDS011;9607;51.600;7.558;2024-01-10T14:35:02;17.35;;;9.23;;
18947;SDS011;9607;51.600;7.558;2024-01-10T14:37:29;14.63;;;9.05;;
18947;SDS011;9607;51.600;7.558;2024-01-10T14:39:56;15.85;;;9.02;;
18947;SDS011;9607;51.600;7.558;2024-01-10T14:42:24;13.50;;;7.80;;
18947;SDS011;9607;51.600;7.558;2024-01-10T14:44:50;15.68;;;8.70;;
18947;SDS011;9607;51.600;7.558;2024-01-10T14:47:17;12.88;;;7.60;;
18947;SDS011;9607;51.600;7.558;2024-01-10T14:49:45;14.15;;;8.25;;
18947;SDS011;9607;51.600;7.558;2024-01-10T14:52:13;14.40;;;8.30;;